sensor_id;sensor_type;location;lat;lon;timestamp;pressure;altitude;pressure_sealevel;temperature;humidity
79612;BME280;69094;48.154;11.536;2023-04-15T00:01:58;94462.91;;;4.48;86.00
79612;BME280;69094;48.154;11.536;2023-04-15T00:04:24;94458.50;;;4.52;85.61
79612;BME280;69094;48.154;11.536;2023-04-15T00:06:52;94466.09;;;4.59;85.37
79612;BME280;69094;48.154;11.536;2023-04-15T00:09:19;94466.09;;;4.50;85.42
79612;BME280;69094;48.154;11.536;2023-04-15T00:11:45;94464.03;;;4.56;85.04
79612;BME280;69094;48.154;11.536;2023-04-15T00:14:11;94466.72;;;4.56;85.11
79612;BME280;69094;48.154;11.536;2023-04-15T00:16:37;94460.84;;;4.54;85.74
79612;BME280;69094;48.154;11.536;2023-04-15T00:19:02;94461.97;;;4.53;85.70
79612;BME280;69094;48.154;11.536;2023-04-15T00:21:28;94469.09;;;4.49;85.98
79612;BME280;69094;48.154;11.536;2023-04-15T00:23:53;94459.28;;;4.53;85.84
79612;BME280;69094;48.154;11.536;2023-04-15T00:26:19;94453.09;;;4.52;85.57
79612;BME280;69094;48.154;11.536;2023-04-15T00:28:45;94456.09;;;4.51;85.62
79612;BME280;69094;48.154;11.536;2023-04-15T00:31:11;94445.97;;;4.48;85.70
79612;BME280;69094;48.154;11.536;2023-04-15T00:33:36;94447.72;;;4.52;85.18
79612;BME280;69094;48.154;11.536;2023-04-15T00:36:02;94445.03;;;4.52;84.82
79612;BME280;69094;48.154;11.536;2023-04-15T00:38:28;94436.13;;;4.52;85.77
79612;BME280;69094;48.154;11.536;2023-04-15T00:40:54;94437.88;;;4.57;85.08
79612;BME280;69094;48.154;11.536;2023-04-15T00:43:20;94437.56;;;4.58;84.78
79612;BME280;69094;48.154;11.536;2023-04-15T00:45:45;94439.63;;;4.52;84.23
79612;BME280;69094;48.154;11.536;2023-04-15T00:48:11;94428.38;;;4.50;85.42
79612;BME280;69094;48.154;11.536;2023-04-15T00:50:37;94435.34;;;4.51;84.85
79612;BME280;69094;48.154;11.536;2023-04-15T00:53:02;94429.31;;;4.46;85.13
79612;BME280;69094;48.154;11.536;2023-04-15T00:55:27;94433.56;;;4.47;85.33
79612;BME280;69094;48.154;11.536;2023-04-15T00:57:53;94433.44;;;4.43;85.40
79612;BME280;69094;48.154;11.536;2023-04-15T01:00:19;94439.16;;;4.50;85.44
79612;BME280;69094;48.154;11.536;2023-04-15T01:02:44;94440.56;;;4.57;84.94
79612;BME280;69094;48.154;11.536;2023-04-15T01:05:10;94435.97;;;4.48;85.38
79612;BME280;69094;48.154;11.536;2023-04-15T01:07:35;94439.94;;;4.51;85.38
79612;BME280;69094;48.154;11.536;2023-04-15T01:10:04;94437.88;;;4.48;85.29
79612;BME280;69094;48.154;11.536;2023-04-15T01:12:31;94440.41;;;4.53;85.20
79612;BME280;69094;48.154;11.536;2023-04-15T01:14:58;94429.16;;;4.51;84.30
79612;BME280;69094;48.154;11.536;2023-04-15T01:17:24;94435.19;;;4.48;85.01
79612;BME280;69094;48.154;11.536;2023-04-15T01:19:50;94442.16;;;4.49;84.59
79612;BME280;69094;48.154;11.536;2023-04-15T01:22:17;94433.56;;;4.47;84.90
79612;BME280;69094;48.154;11.536;2023-04-15T01:24:50;94436.59;;;4.45;84.92
79612;BME280;69094;48.154;11.536;2023-04-15T01:27:20;94433.72;;;4.42;85.16
79612;BME280;69094;48.154;11.536;2023-04-15T01:29:46;94435.47;;;4.38;84.07
79612;BME280;69094;48.154;11.536;2023-04-15T01:32:11;94434.22;;;4.44;84.63
79612;BME280;69094;48.154;11.536;2023-04-15T01:34:37;94432.47;;;4.39;84.23
79612;BME280;69094;48.154;11.536;2023-04-15T01:37:02;94432.63;;;4.43;84.30
79612;BME280;69094;48.154;11.536;2023-04-15T01:39:27;94436.59;;;4.45;84.53
79612;BME280;69094;48.154;11.536;2023-04-15T01:41:53;94435.03;;;4.53;83.75
79612;BME280;69094;48.154;11.536;2023-04-15T01:44:18;94433.72;;;4.42;83.47
79612;BME280;69094;48.154;11.536;2023-04-15T01:46:44;94435.97;;;4.40;83.95
79612;BME280;69094;48.154;11.536;2023-04-15T01:49:09;94436.41;;;4.42;84.18
79612;BME280;69094;48.154;11.536;2023-04-15T01:51:34;94448.66;;;4.48;84.32
79612;BME280;69094;48.154;11.536;2023-04-15T01:54:00;94445.97;;;4.48;83.31
79612;BME280;69094;48.154;11.536;2023-04-15T01:56:25;94449.75;;;4.47;83.68
79612;BME280;69094;48.154;11.536;2023-04-15T01:58:51;94437.88;;;4.48;83.46
79612;BME280;69094;48.154;11.536;2023-04-15T02:01:17;94443.75;;;4.50;83.55
79612;BME280;69094;48.154;11.536;2023-04-15T02:03:44;94441.34;;;4.48;83.50
79612;BME280;69094;48.154;11.536;2023-04-15T02:06:09;94437.53;;;4.49;83.76
79612;BME280;69094;48.154;11.536;2023-04-15T02:08:35;94439.44;;;4.49;83.47
79612;BME280;69094;48.154;11.536;2023-04-15T02:11:00;94433.56;;;4.47;83.25
79612;BME280;69094;48.154;11.536;2023-04-15T02:13:26;94438.97;;;4.47;83.63
79612;BME280;69094;48.154;11.536;2023-04-15T02:15:53;94437.25;;;4.42;83.09
79612;BME280;69094;48.154;11.536;2023-04-15T02:18:18;94434.84;;;4.41;84.26
79612;BME280;69094;48.154;11.536;2023-04-15T02:20:44;94442.00;;;4.45;83.26
79612;BME280;69094;48.154;11.536;2023-04-15T02:23:11;94436.59;;;4.45;83.17
79612;BME280;69094;48.154;11.536;2023-04-15T02:25:36;94438.66;;;4.40;83.04
79612;BME280;69094;48.154;11.536;2023-04-15T02:28:04;94438.97;;;4.38;83.68
79612;BME280;69094;48.154;11.536;2023-04-15T02:30:31;94444.50;;;4.42;83.42
79612;BME280;69094;48.154;11.536;2023-04-15T02:32:56;94438.81;;;4.43;83.49
79612;BME280;69094;48.154;11.536;2023-04-15T02:35:21;94433.56;;;4.38;82.82
79612;BME280;69094;48.154;11.536;2023-04-15T02:37:49;94436.28;;;4.38;82.78
79612;BME280;69094;48.154;11.536;2023-04-15T02:40:16;94435.97;;;4.40;82.99
79612;BME280;69094;48.154;11.536;2023-04-15T02:42:41;94426.28;;;4.39;82.68
79612;BME280;69094;48.154;11.536;2023-04-15T02:45:09;94423.44;;;4.44;82.23
79612;BME280;69094;48.154;11.536;2023-04-15T02:47:36;94432.50;;;4.48;82.93
79612;BME280;69094;48.154;11.536;2023-04-15T02:50:07;94433.44;;;4.43;82.44
79612;BME280;69094;48.154;11.536;2023-04-15T02:52:33;94429.16;;;4.42;82.89
79612;BME280;69094;48.154;11.536;2023-04-15T02:54:58;94433.28;;;4.40;82.83
79612;BME280;69094;48.154;11.536;2023-04-15T02:57:27;94423.44;;;4.44;82.52
79612;BME280;69094;48.154;11.536;2023-04-15T02:59:55;94424.56;;;4.43;82.35
79612;BME280;69094;48.154;11.536;2023-04-15T03:02:20;94432.50;;;4.48;83.07
79612;BME280;69094;48.154;11.536;2023-04-15T03:04:46;94425.66;;;4.42;82.03
79612;BME280;69094;48.154;11.536;2023-04-15T03:07:11;94429.47;;;4.41;82.33
79612;BME280;69094;48.154;11.536;2023-04-15T03:09:36;94434.69;;;4.46;82.37
79612;BME280;69094;48.154;11.536;2023-04-15T03:12:04;94432.00;;;4.46;81.93
79612;BME280;69094;48.154;11.536;2023-04-15T03:14:30;94433.13;;;4.45;82.15
79612;BME280;69094;48.154;11.536;2023-04-15T03:16:55;94432.00;;;4.46;82.54
79612;BME280;69094;48.154;11.536;2023-04-15T03:19:21;94440.56;;;4.48;82.88
79612;BME280;69094;48.154;11.536;2023-04-15T03:21:46;94445.97;;;4.48;83.19
79612;BME280;69094;48.154;11.536;2023-04-15T03:24:11;94441.06;;;4.50;81.84
79612;BME280;69094;48.154;11.536;2023-04-15T03:26:37;94447.38;;;4.54;81.92
79612;BME280;69094;48.154;11.536;2023-04-15T03:29:02;94447.72;;;4.52;81.66
79612;BME280;69094;48.154;11.536;2023-04-15T03:31:27;94448.03;;;4.51;82.79
79612;BME280;69094;48.154;11.536;2023-04-15T03:33:53;94445.97;;;4.48;81.45
79612;BME280;69094;48.154;11.536;2023-04-15T03:36:18;94441.06;;;4.50;81.94
79612;BME280;69094;48.154;11.536;2023-04-15T03:38:43;94443.25;;;4.48;81.96
79612;BME280;69094;48.154;11.536;2023-04-15T03:41:09;94442.63;;;4.51;80.62
79612;BME280;69094;48.154;11.536;2023-04-15T03:43:34;94445.63;;;4.49;82.94
79612;BME280;69094;48.154;11.536;2023-04-15T03:46:00;94447.38;;;4.45;82.63
79612;BME280;69094;48.154;11.536;2023-04-15T03:48:26;94444.53;;;4.50;80.68
79612;BME280;69094;48.154;11.536;2023-04-15T03:50:51;94456.09;;;4.51;82.39
79612;BME280;69094;48.154;11.536;2023-04-15T03:53:16;94450.22;;;4.49;82.05
79612;BME280;69094;48.154;11.536;2023-04-15T03:55:42;94445.97;;;4.48;81.93
79612;BME280;69094;48.154;11.536;2023-04-15T03:58:07;94445.97;;;4.48;82.20
79612;BME280;69094;48.154;11.536;2023-04-15T04:00:36;94451.84;;;4.50;81.87
79612;BME280;69094;48.154;11.536;2023-04-15T04:03:02;94458.50;;;4.52;81.85
79612;BME280;69094;48.154;11.536;2023-04-15T04:05:27;94458.16;;;4.54;81.95
79612;BME280;69094;48.154;11.536;2023-04-15T04:07:52;94457.38;;;4.53;82.11
79612;BME280;69094;48.154;11.536;2023-04-15T04:10:17;94457.06;;;4.55;82.85
79612;BME280;69094;48.154;11.536;2023-04-15T04:12:43;94457.88;;;4.56;81.63
79612;BME280;69094;48.154;11.536;2023-04-15T04:15:08;94451.53;;;4.60;82.67
79612;BME280;69094;48.154;11.536;2023-04-15T04:17:34;94456.13;;;4.68;81.87
79612;BME280;69094;48.154;11.536;2023-04-15T04:19:59;94451.38;;;4.65;80.35
79612;BME280;69094;48.154;11.536;2023-04-15T04:22:25;94453.28;;;4.65;80.79
79612;BME280;69094;48.154;11.536;2023-04-15T04:24:50;94457.88;;;4.64;81.34
79612;BME280;69094;48.154;11.536;2023-04-15T04:27:16;94452.63;;;4.59;81.02
79612;BME280;69094;48.154;11.536;2023-04-15T04:29:41;94456.59;;;4.62;80.18
79612;BME280;69094;48.154;11.536;2023-04-15T04:32:06;94458.97;;;4.63;80.07
79612;BME280;69094;48.154;11.536;2023-04-15T04:34:32;94454.22;;;4.60;79.87
79612;BME280;69094;48.154;11.536;2023-04-15T04:36:57;94452.03;;;4.62;80.45
79612;BME280;69094;48.154;11.536;2023-04-15T04:39:23;94457.41;;;4.62;79.14
79612;BME280;69094;48.154;11.536;2023-04-15T04:41:48;94456.28;;;4.63;78.82
79612;BME280;69094;48.154;11.536;2023-04-15T04:44:14;94458.66;;;4.56;79.35
79612;BME280;69094;48.154;11.536;2023-04-15T04:46:39;94450.41;;;4.61;79.21
79612;BME280;69094;48.154;11.536;2023-04-15T04:49:04;94466.44;;;4.58;79.14
79612;BME280;69094;48.154;11.536;2023-04-15T04:51:30;94455.81;;;4.61;78.75
79612;BME280;69094;48.154;11.536;2023-04-15T04:53:56;94459.91;;;4.59;79.46
79612;BME280;69094;48.154;11.536;2023-04-15T04:56:22;94461.66;;;4.54;78.86
79612;BME280;69094;48.154;11.536;2023-04-15T04:58:47;94462.63;;;4.59;78.84
79612;BME280;69094;48.154;11.536;2023-04-15T05:01:12;94460.25;;;4.57;78.12
79612;BME280;69094;48.154;11.536;2023-04-15T05:03:38;94461.34;;;4.56;78.72
79612;BME280;69094;48.154;11.536;2023-04-15T05:06:03;94459.91;;;4.59;78.74
79612;BME280;69094;48.154;11.536;2023-04-15T05:08:31;94461.84;;;4.67;78.26
79612;BME280;69094;48.154;11.536;2023-04-15T05:10:57;94458.34;;;4.66;76.94
79612;BME280;69094;48.154;11.536;2023-04-15T05:13:22;94463.09;;;4.69;77.09
79612;BME280;69094;48.154;11.536;2023-04-15T05:15:47;94457.25;;;4.67;76.64
79612;BME280;69094;48.154;11.536;2023-04-15T05:18:13;94459.31;;;4.70;76.24
79612;BME280;69094;48.154;11.536;2023-04-15T05:20:38;94456.28;;;4.63;76.32
79612;BME280;69094;48.154;11.536;2023-04-15T05:23:03;94455.00;;;4.61;76.72
79612;BME280;69094;48.154;11.536;2023-04-15T05:25:29;94459.28;;;4.62;76.25
79612;BME280;69094;48.154;11.536;2023-04-15T05:27:54;94452.97;;;4.58;77.60
79612;BME280;69094;48.154;11.536;2023-04-15T05:30:19;94453.91;;;4.62;76.25
79612;BME280;69094;48.154;11.536;2023-04-15T05:32:45;94454.56;;;4.67;75.08
79612;BME280;69094;48.154;11.536;2023-04-15T05:35:10;94457.91;;;4.73;75.21
79612;BME280;69094;48.154;11.536;2023-04-15T05:37:36;94462.50;;;4.72;74.59
79612;BME280;69094;48.154;11.536;2023-04-15T05:40:01;94458.53;;;4.79;74.95
79612;BME280;69094;48.154;11.536;2023-04-15T05:42:28;94465.34;;;4.76;74.88
79612;BME280;69094;48.154;11.536;2023-04-15T05:44:53;94459.97;;;4.76;74.02
79612;BME280;69094;48.154;11.536;2023-04-15T05:47:19;94459.66;;;4.78;74.18
79612;BME280;69094;48.154;11.536;2023-04-15T05:49:44;94467.59;;;4.83;72.78
79612;BME280;69094;48.154;11.536;2023-04-15T05:52:09;94461.06;;;4.84;73.44
79612;BME280;69094;48.154;11.536;2023-04-15T05:54:35;94455.84;;;4.79;72.86
79612;BME280;69094;48.154;11.536;2023-04-15T05:57:00;94455.53;;;4.80;73.11
79612;BME280;69094;48.154;11.536;2023-04-15T05:59:26;94458.38;;;4.84;71.99
79612;BME280;69094;48.154;11.536;2023-04-15T06:01:52;94454.41;;;4.81;71.57
79612;BME280;69094;48.154;11.536;2023-04-15T06:04:18;94457.44;;;4.80;72.14
79612;BME280;69094;48.154;11.536;2023-04-15T06:06:43;94455.69;;;4.75;72.35
79612;BME280;69094;48.154;11.536;2023-04-15T06:09:08;94458.53;;;4.79;71.60
79612;BME280;69094;48.154;11.536;2023-04-15T06:11:34;94458.38;;;4.84;71.69
79612;BME280;69094;48.154;11.536;2023-04-15T06:13:59;94464.88;;;4.83;69.79
79612;BME280;69094;48.154;11.536;2023-04-15T06:16:25;94461.56;;;4.86;71.14
79612;BME280;69094;48.154;11.536;2023-04-15T06:18:50;94470.75;;;4.93;70.03
79612;BME280;69094;48.154;11.536;2023-04-15T06:21:15;94467.44;;;4.96;69.95
79612;BME280;69094;48.154;11.536;2023-04-15T06:23:41;94463.78;;;5.01;69.94
79612;BME280;69094;48.154;11.536;2023-04-15T06:26:07;94464.75;;;5.05;70.37
79612;BME280;69094;48.154;11.536;2023-04-15T06:28:32;94456.66;;;5.14;70.31
79612;BME280;69094;48.154;11.536;2023-04-15T06:30:58;94464.75;;;5.23;69.21
79612;BME280;69094;48.154;11.536;2023-04-15T06:33:23;94468.88;;;5.29;69.42
79612;BME280;69094;48.154;11.536;2023-04-15T06:35:48;94466.00;;;5.34;67.90
79612;BME280;69094;48.154;11.536;2023-04-15T06:38:14;94472.38;;;5.47;68.40
79612;BME280;69094;48.154;11.536;2023-04-15T06:40:40;94480.28;;;5.60;67.74
79612;BME280;69094;48.154;11.536;2023-04-15T06:43:05;94473.44;;;5.63;66.58
79612;BME280;69094;48.154;11.536;2023-04-15T06:45:30;94473.63;;;5.67;67.79
79612;BME280;69094;48.154;11.536;2023-04-15T06:47:56;94474.72;;;5.74;66.57
79612;BME280;69094;48.154;11.536;2023-04-15T06:50:21;94477.38;;;5.83;66.53
79612;BME280;69094;48.154;11.536;2023-04-15T06:52:47;94475.94;;;5.86;66.96
79612;BME280;69094;48.154;11.536;2023-04-15T06:55:12;94475.63;;;5.87;65.37
79612;BME280;69094;48.154;11.536;2023-04-15T06:57:38;94479.72;;;5.93;68.53
79612;BME280;69094;48.154;11.536;2023-04-15T07:00:04;94478.31;;;6.43;68.43
79612;BME280;69094;48.154;11.536;2023-04-15T07:02:30;94481.59;;;6.57;66.74
79612;BME280;69094;48.154;11.536;2023-04-15T07:04:55;94485.75;;;6.84;64.37
79612;BME280;69094;48.154;11.536;2023-04-15T07:07:21;94481.66;;;6.78;60.97
79612;BME280;69094;48.154;11.536;2023-04-15T07:09:46;94477.56;;;6.93;60.59
79612;BME280;69094;48.154;11.536;2023-04-15T07:12:11;94481.28;;;7.09;62.05
79612;BME280;69094;48.154;11.536;2023-04-15T07:14:37;94480.44;;;7.39;62.22
79612;BME280;69094;48.154;11.536;2023-04-15T07:17:02;94473.16;;;7.51;61.31
79612;BME280;69094;48.154;11.536;2023-04-15T07:19:27;94489.66;;;7.59;58.56
79612;BME280;69094;48.154;11.536;2023-04-15T07:21:53;94477.75;;;7.72;58.53
79612;BME280;69094;48.154;11.536;2023-04-15T07:24:18;94488.78;;;7.88;56.80
79612;BME280;69094;48.154;11.536;2023-04-15T07:26:45;94482.78;;;7.94;57.31
79612;BME280;69094;48.154;11.536;2023-04-15T07:29:10;94481.81;;;8.11;56.90
79612;BME280;69094;48.154;11.536;2023-04-15T07:31:36;94484.53;;;8.11;56.52
79612;BME280;69094;48.154;11.536;2023-04-15T07:34:02;94490.69;;;8.33;57.10
79612;BME280;69094;48.154;11.536;2023-04-15T07:36:28;94485.78;;;8.47;55.45
79612;BME280;69094;48.154;11.536;2023-04-15T07:38:53;94485.31;;;8.45;55.73
79612;BME280;69094;48.154;11.536;2023-04-15T07:41:19;94492.88;;;8.52;56.36
79612;BME280;69094;48.154;11.536;2023-04-15T07:43:45;94491.19;;;8.72;54.65
79612;BME280;69094;48.154;11.536;2023-04-15T07:46:10;94497.50;;;9.00;54.32
79612;BME280;69094;48.154;11.536;2023-04-15T07:48:36;94490.00;;;9.34;52.56
79612;BME280;69094;48.154;11.536;2023-04-15T07:51:01;94493.72;;;9.98;51.95
79612;BME280;69094;48.154;11.536;2023-04-15T07:53:27;94485.81;;;10.21;50.71
79612;BME280;69094;48.154;11.536;2023-04-15T07:55:53;94490.84;;;10.35;49.21
79612;BME280;69094;48.154;11.536;2023-04-15T07:58:18;94485.97;;;10.56;48.99
79612;BME280;69094;48.154;11.536;2023-04-15T08:00:43;94485.59;;;10.58;48.73
79612;BME280;69094;48.154;11.536;2023-04-15T08:03:09;94487.06;;;11.03;47.96
79612;BME280;69094;48.154;11.536;2023-04-15T08:05:35;94488.06;;;11.50;46.74
79612;BME280;69094;48.154;11.536;2023-04-15T08:08:00;94480.94;;;11.61;45.50
79612;BME280;69094;48.154;11.536;2023-04-15T08:10:26;94486.09;;;11.66;45.03
79612;BME280;69094;48.154;11.536;2023-04-15T08:12:51;94473.63;;;12.04;44.76
79612;BME280;69094;48.154;11.536;2023-04-15T08:15:19;94484.66;;;12.11;43.73
79612;BME280;69094;48.154;11.536;2023-04-15T08:17:44;94483.78;;;12.26;43.54
79612;BME280;69094;48.154;11.536;2023-04-15T08:20:10;94476.41;;;12.50;43.44
79612;BME280;69094;48.154;11.536;2023-04-15T08:22:37;94474.53;;;12.54;44.29
79612;BME280;69094;48.154;11.536;2023-04-15T08:25:03;94484.69;;;12.34;44.32
79612;BME280;69094;48.154;11.536;2023-04-15T08:27:28;94489.06;;;12.39;45.03
79612;BME280;69094;48.154;11.536;2023-04-15T08:29:54;94482.03;;;12.38;44.14
79612;BME280;69094;48.154;11.536;2023-04-15T08:32:19;94486.22;;;12.32;43.95
79612;BME280;69094;48.154;11.536;2023-04-15T08:34:44;94478.06;;;12.12;43.60
79612;BME280;69094;48.154;11.536;2023-04-15T08:37:10;94467.72;;;11.82;44.49
79612;BME280;69094;48.154;11.536;2023-04-15T08:39:35;94473.78;;;11.37;46.32
79612;BME280;69094;48.154;11.536;2023-04-15T08:42:01;94481.88;;;10.98;47.66
79612;BME280;69094;48.154;11.536;2023-04-15T08:44:32;94474.06;;;10.81;47.08
79612;BME280;69094;48.154;11.536;2023-04-15T08:47:01;94466.81;;;10.53;48.35
79612;BME280;69094;48.154;11.536;2023-04-15T08:49:28;94470.13;;;10.30;48.46
79612;BME280;69094;48.154;11.536;2023-04-15T08:51:54;94477.41;;;9.98;49.79
79612;BME280;69094;48.154;11.536;2023-04-15T08:54:21;94478.91;;;9.67;50.58
79612;BME280;69094;48.154;11.536;2023-04-15T08:56:47;94472.75;;;9.55;50.93
79612;BME280;69094;48.154;11.536;2023-04-15T08:59:13;94480.69;;;9.47;50.95
79612;BME280;69094;48.154;11.536;2023-04-15T09:01:39;94482.47;;;9.56;51.39
79612;BME280;69094;48.154;11.536;2023-04-15T09:04:05;94488.59;;;9.53;50.65
79612;BME280;69094;48.154;11.536;2023-04-15T09:06:32;94488.13;;;9.51;50.98
79612;BME280;69094;48.154;11.536;2023-04-15T09:08:57;94489.78;;;9.67;51.01
79612;BME280;69094;48.154;11.536;2023-04-15T09:11:23;94488.31;;;9.70;50.73
79612;BME280;69094;48.154;11.536;2023-04-15T09:13:49;94489.31;;;9.93;49.74
79612;BME280;69094;48.154;11.536;2023-04-15T09:16:15;94500.00;;;10.14;49.21
79612;BME280;69094;48.154;11.536;2023-04-15T09:18:40;94502.00;;;10.18;49.20
79612;BME280;69094;48.154;11.536;2023-04-15T09:21:14;94505.03;;;10.28;48.74
79612;BME280;69094;48.154;11.536;2023-04-15T09:23:53;94509.28;;;10.42;48.52
79612;BME280;69094;48.154;11.536;2023-04-15T09:26:32;94511.66;;;10.59;48.62
79612;BME280;69094;48.154;11.536;2023-04-15T09:29:05;94511.59;;;10.71;48.71
79612;BME280;69094;48.154;11.536;2023-04-15T09:31:31;94512.53;;;10.63;49.72
79612;BME280;69094;48.154;11.536;2023-04-15T09:33:57;94513.59;;;10.74;48.85
79612;BME280;69094;48.154;11.536;2023-04-15T09:36:22;94510.69;;;10.99;48.12
79612;BME280;69094;48.154;11.536;2023-04-15T09:38:56;94517.22;;;11.30;47.90
79612;BME280;69094;48.154;11.536;2023-04-15T09:41:23;94522.09;;;11.56;46.90
79612;BME280;69094;48.154;11.536;2023-04-15T09:43:49;94514.97;;;11.87;46.49
79612;BME280;69094;48.154;11.536;2023-04-15T09:46:14;94516.22;;;12.12;46.32
79612;BME280;69094;48.154;11.536;2023-04-15T09:48:40;94512.84;;;11.80;45.92
79612;BME280;69094;48.154;11.536;2023-04-15T09:51:05;94518.56;;;11.55;46.99
79612;BME280;69094;48.154;11.536;2023-04-15T09:53:33;94516.13;;;10.99;48.22
79612;BME280;69094;48.154;11.536;2023-04-15T09:55:59;94516.66;;;10.89;48.19
79612;BME280;69094;48.154;11.536;2023-04-15T09:58:28;94527.16;;;10.43;50.07
79612;BME280;69094;48.154;11.536;2023-04-15T10:00:55;94523.13;;;10.37;50.08
79612;BME280;69094;48.154;11.536;2023-04-15T10:03:26;94522.44;;;10.40;49.74
79612;BME280;69094;48.154;11.536;2023-04-15T10:05:55;94521.78;;;10.30;50.22
79612;BME280;69094;48.154;11.536;2023-04-15T10:08:26;94530.97;;;10.26;50.54
79612;BME280;69094;48.154;11.536;2023-04-15T10:10:53;94531.22;;;10.21;50.64
79612;BME280;69094;48.154;11.536;2023-04-15T10:13:23;94529.66;;;10.20;50.69
79612;BME280;69094;48.154;11.536;2023-04-15T10:15:57;94523.63;;;10.26;50.06
79612;BME280;69094;48.154;11.536;2023-04-15T10:18:25;94525.44;;;10.22;49.34
79612;BME280;69094;48.154;11.536;2023-04-15T10:20:52;94525.78;;;10.21;51.06
79612;BME280;69094;48.154;11.536;2023-04-15T10:23:19;94517.03;;;10.27;50.08
79612;BME280;69094;48.154;11.536;2023-04-15T10:25:45;94525.66;;;10.29;50.02
79612;BME280;69094;48.154;11.536;2023-04-15T10:28:11;94525.78;;;10.49;49.39
79612;BME280;69094;48.154;11.536;2023-04-15T10:30:38;94528.84;;;10.47;49.92
79612;BME280;69094;48.154;11.536;2023-04-15T10:33:04;94531.75;;;10.39;49.06
79612;BME280;69094;48.154;11.536;2023-04-15T10:35:31;94530.53;;;10.52;50.33
79612;BME280;69094;48.154;11.536;2023-04-15T10:37:57;94535.44;;;10.46;50.01
79612;BME280;69094;48.154;11.536;2023-04-15T10:40:28;94534.72;;;10.65;49.32
79612;BME280;69094;48.154;11.536;2023-04-15T10:42:59;94534.56;;;10.74;48.55
79612;BME280;69094;48.154;11.536;2023-04-15T10:45:35;94535.81;;;10.76;49.33
79612;BME280;69094;48.154;11.536;2023-04-15T10:48:02;94536.25;;;10.78;49.18
79612;BME280;69094;48.154;11.536;2023-04-15T10:50:30;94533.53;;;10.78;48.61
79612;BME280;69094;48.154;11.536;2023-04-15T10:52:57;94542.31;;;10.56;48.37
79612;BME280;69094;48.154;11.536;2023-04-15T10:55:28;94544.31;;;10.59;48.68
79612;BME280;69094;48.154;11.536;2023-04-15T10:57:59;94543.53;;;10.74;49.65
79612;BME280;69094;48.154;11.536;2023-04-15T11:00:28;94544.94;;;10.68;49.25
79612;BME280;69094;48.154;11.536;2023-04-15T11:02:56;94548.19;;;10.74;48.69
79612;BME280;69094;48.154;11.536;2023-04-15T11:08:08;94543.09;;;10.56;48.96
79612;BME280;69094;48.154;11.536;2023-04-15T11:13:01;94543.88;;;10.57;48.85
79612;BME280;69094;48.154;11.536;2023-04-15T11:18:11;94545.28;;;10.67;49.95
79612;BME280;69094;48.154;11.536;2023-04-15T11:20:44;94544.06;;;10.64;50.08
79612;BME280;69094;48.154;11.536;2023-04-15T11:23:10;94544.13;;;10.52;50.10
79612;BME280;69094;48.154;11.536;2023-04-15T11:25:35;94545.75;;;10.41;49.65
79612;BME280;69094;48.154;11.536;2023-04-15T11:28:04;94539.28;;;10.17;50.37
79612;BME280;69094;48.154;11.536;2023-04-15T11:30:35;94546.63;;;9.88;52.38
79612;BME280;69094;48.154;11.536;2023-04-15T11:33:03;94545.34;;;9.70;53.82
79612;BME280;69094;48.154;11.536;2023-04-15T11:35:30;94545.06;;;9.59;55.51
79612;BME280;69094;48.154;11.536;2023-04-15T11:37:55;94556.50;;;9.53;56.47
79612;BME280;69094;48.154;11.536;2023-04-15T11:40:23;94553.53;;;9.58;56.31
79612;BME280;69094;48.154;11.536;2023-04-15T11:43:11;94557.41;;;9.57;55.17
79612;BME280;69094;48.154;11.536;2023-04-15T11:45:56;94556.69;;;9.60;54.65
79612;BME280;69094;48.154;11.536;2023-04-15T11:48:33;94555.34;;;9.54;53.73
79612;BME280;69094;48.154;11.536;2023-04-15T11:51:01;94562.16;;;9.47;54.02
79612;BME280;69094;48.154;11.536;2023-04-15T11:53:47;94552.78;;;9.33;55.34
79612;BME280;69094;48.154;11.536;2023-04-15T11:58:43;94554.28;;;9.18;54.55
79612;BME280;69094;48.154;11.536;2023-04-15T12:01:10;94559.13;;;9.24;55.14
79612;BME280;69094;48.154;11.536;2023-04-15T12:03:41;94557.91;;;9.22;56.00
79612;BME280;69094;48.154;11.536;2023-04-15T12:06:23;94559.25;;;9.16;56.03
79612;BME280;69094;48.154;11.536;2023-04-15T12:11:39;94568.63;;;9.31;52.36
79612;BME280;69094;48.154;11.536;2023-04-15T12:16:41;94572.56;;;9.45;53.57
79612;BME280;69094;48.154;11.536;2023-04-15T12:19:10;94576.84;;;9.46;53.03
79612;BME280;69094;48.154;11.536;2023-04-15T12:21:37;94575.28;;;9.45;52.36
79612;BME280;69094;48.154;11.536;2023-04-15T12:24:05;94581.16;;;9.47;52.18
79612;BME280;69094;48.154;11.536;2023-04-15T12:26:47;94585.22;;;9.54;52.59
79612;BME280;69094;48.154;11.536;2023-04-15T12:29:14;94586.13;;;9.58;51.40
79612;BME280;69094;48.154;11.536;2023-04-15T12:31:48;94584.16;;;9.70;50.95
79612;BME280;69094;48.154;11.536;2023-04-15T12:34:14;94575.22;;;9.82;50.01
79612;BME280;69094;48.154;11.536;2023-04-15T12:36:41;94584.81;;;9.92;47.83
79612;BME280;69094;48.154;11.536;2023-04-15T12:39:06;94581.44;;;9.83;47.28
79612;BME280;69094;48.154;11.536;2023-04-15T12:41:32;94588.09;;;9.85;47.62
79612;BME280;69094;48.154;11.536;2023-04-15T12:43:58;94590.59;;;9.78;47.62
79612;BME280;69094;48.154;11.536;2023-04-15T12:46:24;94600.47;;;9.70;47.79
79612;BME280;69094;48.154;11.536;2023-04-15T12:48:50;94598.13;;;9.69;46.59
79612;BME280;69094;48.154;11.536;2023-04-15T12:51:19;94600.63;;;9.62;46.69
79612;BME280;69094;48.154;11.536;2023-04-15T12:53:46;94604.91;;;9.63;47.48
79612;BME280;69094;48.154;11.536;2023-04-15T12:56:12;94603.34;;;9.62;48.20
79612;BME280;69094;48.154;11.536;2023-04-15T12:58:38;94618.63;;;9.54;47.98
79612;BME280;69094;48.154;11.536;2023-04-15T13:01:03;94608.78;;;9.49;48.11
79612;BME280;69094;48.154;11.536;2023-04-15T13:03:28;94613.28;;;9.45;48.29
79612;BME280;69094;48.154;11.536;2023-04-15T13:05:54;94607.63;;;9.38;46.47
79612;BME280;69094;48.154;11.536;2023-04-15T13:08:19;94608.88;;;9.28;45.72
79612;BME280;69094;48.154;11.536;2023-04-15T13:10:45;94623.16;;;9.25;46.77